Decoded Metar for GMFO (OUJDA in MOROCCO) (IATA:OUD) | Meteo·Mobile Aviation Weather
aviador You're here:

GMFO Decoded Metar

OUJDA in MOROCCO
Report Time2019-01-19 16:00:00
UTC Time2019-01-19 16:34:37
Flight Rules vfr VFR
Wind220° at 17 kt
W.Decomp.*RWY 24: 16.1 kt HW 5.5 kt LCW
RWY 31: 0.3 kt HW 17 kt LCW
W.Rank220° ranks 4
Current wind is above 220° avg. (6.0)
Visibility9999 m
Phenomena:N/A
Clouds:Few 026 Hf
Broken 040 Hf
Expected CloudBase > 2,000 ft AGL from Temp-Dew spread
Ceiling4,000 ft
Temp12°C (ISA 0)
Dew Point07°C (72% RH)
AAT5.2°C
QNH1017 hPa
Density Alt1,555 ft
Elevation1,542 ft
Report Wrong Elevation
Raw Report
GMFO 191600Z 22017KT 9999 FEW026 BKN040 12/07 Q1017 NOSIG=

Extra information for GMFO:More info

Metar Taf Metar & Taf Last 4 Metars F.Rules Stats Wind Profile Meteogram Temp Stats Airport Information Weather charts Add Link Nearby VenuesMetar ALERT Operation Metar Decoded Social comments